Latest Weather Observations for Nuriootpa

IDS60901

Issued at 4:11 pm CDT Saturday 31 January 2015 (issued every 10 minutes, with the page automatically refreshed every 10 minutes)

About weather observations | Map of Adelaide area stations | Latest observations for Adelaide area | Other Formats
Station Details ID: 023373 Name: NURIOOTPA VITICULTURAL Lat: -34.48 Lon: 139.01 Height: 275.0 m
Data from the previous 72 hours. | See also: Recent months at Nuriootpa
Date/Time
CDT
Tmp

°C
App
Tmp
°C
Dew
Point
°C
Rel
Hum
%
Delta-T

°C
Wind Press
QNH
hPa
Press
MSL
hPa
Rain
since
9 am
mm
Dir
 
Spd
km/h
Gust
km/h
Spd
kts
Gust
kts
31/04:00pm 23.3 19.0 5.2 31 9.2 SE 17 30 9 16 1014.0 1012.9 0.0
31/03:30pm 23.2 18.9 3.1 27 9.8 SSE 15 28 8 15 1014.3 1013.1 0.0
31/03:00pm 22.9 18.5 2.6 26 9.8 S 15 26 8 14 1014.4 1013.2 0.0
31/02:30pm 22.7 18.1 3.5 28 9.4 S 17 26 9 14 1014.6 1013.4 0.0
31/02:00pm 21.6 17.3 3.5 30 8.8 SSE 15 24 8 13 1014.6 1013.4 0.0
31/01:30pm 22.2 17.7 4.2 31 8.9 SSE 17 24 9 13 1014.9 1013.7 0.0
31/01:00pm 20.8 17.5 4.6 34 8.0 S 11 26 6 14 1015.1 1013.9 0.0
31/12:30pm 21.0 17.8 4.9 35 8.0 S 11 20 6 11 1015.6 1014.4 0.0
31/12:00pm 19.7 16.2 5.4 39 7.1 SE 13 26 7 14 1016.0 1014.8 0.0
31/11:30am 19.0 15.0 4.9 39 6.9 S 15 22 8 12 1016.3 1015.1 0.0
31/11:00am 18.8 14.5 5.2 40 6.7 SSE 17 24 9 13 1016.3 1015.1 0.0
31/10:30am 17.8 13.4 6.7 48 5.6 SE 19 30 10 16 1016.5 1015.4 0.0
31/10:00am 16.8 11.6 7.1 52 4.9 SE 24 35 13 19 1016.5 1015.4 0.0
31/09:30am 16.3 10.8 7.6 56 4.4 SE 26 35 14 19 1016.5 1015.4 0.0
31/09:00am 15.3 10.1 7.3 59 4.0 SE 24 35 13 19 1016.5 1015.4 0.0
31/08:30am 14.6 10.3 7.9 64 3.4 SE 20 32 11 17 1016.2 1015.0 0.0
31/08:00am 13.6 10.0 8.3 70 2.7 SE 17 35 9 19 1015.9 1014.7 0.0
31/07:30am 12.3 8.3 8.3 76 2.0 ESE 19 33 10 18 1015.4 1014.2 0.0
31/07:00am 11.5 6.6 8.3 81 1.6 SE 24 43 13 23 1015.1 1013.9 0.0
31/06:30am 11.0 7.2 7.5 79 1.7 SE 17 32 9 17 1015.0 1013.8 0.0
31/06:00am 11.2 7.3 7.1 76 2.0 SE 17 33 9 18 1014.6 1013.4 0.0
31/05:30am 11.5 7.6 7.0 74 2.2 SE 17 26 9 14 1014.4 1013.2 0.0
31/05:00am 11.8 6.9 6.8 71 2.4 SE 22 37 12 20 1013.9 1012.8 0.0
31/04:30am 12.0 7.1 7.1 72 2.4 SE 22 37 12 20 1013.6 1012.5 0.0
31/04:00am 12.4 7.2 7.3 71 2.5 SSE 24 41 13 22 1013.5 1012.4 0.0
31/03:30am 12.8 7.6 7.3 69 2.7 SE 24 37 13 20 1013.4 1012.3 0.0
31/03:00am 13.1 8.4 7.7 70 2.7 SE 22 39 12 21 1013.5 1012.4 0.0
31/02:30am 13.4 8.0 8.0 70 2.7 SE 26 37 14 20 1013.6 1012.5 0.0
31/02:00am 13.7 7.7 7.2 65 3.2 SE 28 39 15 21 1013.7 1012.6 0.0
31/01:30am 14.1 8.1 7.0 62 3.5 SE 28 39 15 21 1013.9 1012.8 0.0
31/01:00am 14.0 8.2 8.1 67 3.0 SE 28 43 15 23 1013.9 1012.8 0.0
31/12:30am 14.1 8.8 8.6 69 2.8 SE 26 39 14 21 1014.3 1013.1 0.0
31/12:00am 14.3 9.8 8.6 68 2.9 SE 22 33 12 18 1014.3 1013.1 0.0
 
Date/Time
CDT
Tmp

°C
App
Tmp
°C
Dew
Point
°C
Rel
Hum
%
Delta-T

°C
Wind Press
QNH
hPa
Press
MSL
hPa
Rain
since
9 am
mm
Dir
 
Spd
km/h
Gust
km/h
Spd
kts
Gust
kts
30/11:30pm 14.6 10.4 8.1 65 3.3 SE 20 35 11 19 1014.4 1013.2 0.0
30/11:00pm 14.2 12.0 7.8 65 3.2 SSW 9 17 5 9 1014.7 1013.5 0.0
30/10:30pm 14.5 11.6 8.2 66 3.2 SSE 13 20 7 11 1014.8 1013.6 0.0
30/10:00pm 15.2 11.8 7.7 61 3.8 S 15 20 8 11 1014.6 1013.4 0.0
30/09:30pm 16.0 14.0 7.3 56 4.4 SSE 7 13 4 7 1014.4 1013.2 0.0
30/09:00pm 17.0 13.5 7.1 52 5.0 SSE 15 22 8 12 1014.0 1012.9 0.0
30/08:30pm 18.5 14.1 7.6 49 5.6 SE 20 30 11 16 1013.8 1012.7 0.0
30/08:00pm 20.2 15.3 7.0 42 6.8 SE 22 33 12 18 1013.5 1012.4 0.0
30/07:30pm 21.8 16.5 6.7 37 7.8 SE 24 33 13 18 1013.3 1012.2 0.0
30/07:00pm 23.4 18.5 5.0 30 9.3 SE 20 30 11 16 1013.0 1011.8 0.0
30/06:30pm 24.4 19.0 4.3 27 10.1 SE 22 33 12 18 1012.8 1011.6 0.0
30/06:00pm 25.3 19.8 1.7 21 11.4 SE 20 30 11 16 1012.6 1011.4 0.0
30/05:30pm 26.3 21.1 0.4 18 12.3 ESE 17 26 9 14 1012.8 1011.6 0.0
30/05:00pm 26.0 20.4 0.1 18 12.2 ESE 19 30 10 16 1012.9 1011.7 0.0
30/04:30pm 26.6 21.9 3.2 22 11.7 SE 17 26 9 14 1013.2 1012.0 0.0
30/04:00pm 25.4 20.2 2.2 22 11.3 SE 19 32 10 17 1013.4 1012.3 0.0
30/03:30pm 25.6 21.0 1.5 20 11.6 SE 15 26 8 14 1013.8 1012.7 0.0
30/03:00pm 25.9 21.2 1.0 19 11.9 S 15 28 8 15 1014.3 1013.1 0.0
30/02:30pm 25.5 20.3 -0.2 18 12.0 SSE 17 30 9 16 1014.7 1013.5 0.0
30/02:00pm 25.4 20.3 0.7 20 11.7 ESE 17 26 9 14 1015.0 1013.8 0.0
30/01:30pm 25.1 20.9 1.6 21 11.3 SE 13 24 7 13 1015.5 1014.3 0.0
30/01:00pm 24.2 19.3 2.3 24 10.6 SSE 17 35 9 19 1015.8 1014.6 0.0
30/12:30pm 23.4 18.7 3.1 26 9.9 ESE 17 24 9 13 1016.2 1015.0 0.0
30/12:00pm 22.1 17.6 4.0 30 8.9 SE 17 24 9 13 1016.5 1015.4 0.0
30/11:30am 21.3 17.2 4.5 33 8.3 SE 15 20 8 11 1016.8 1015.7 0.0
30/11:00am 20.5 16.6 5.5 37 7.5 ESE 15 24 8 13 1016.8 1015.7 0.0
30/10:30am 19.0 14.7 5.2 40 6.8 ESE 17 24 9 13 1017.2 1016.1 0.0
30/10:00am 18.3 13.7 5.5 43 6.3 ESE 19 28 10 15 1017.3 1016.2 0.0
30/09:30am 17.8 13.5 5.3 43 6.1 ESE 17 28 9 15 1017.2 1016.1 0.0
30/09:00am 17.5 12.9 5.7 46 5.8 ESE 19 30 10 16 1017.2 1016.1 0.0
30/08:30am 16.4 11.5 5.2 47 5.4 ESE 20 28 11 15 1017.0 1015.9 0.0
30/08:00am 15.6 11.6 4.9 49 5.1 E 15 24 8 13 1017.0 1015.9 0.0
30/07:30am 14.6 10.5 4.6 51 4.7 E 15 24 8 13 1016.7 1015.6 0.0
30/07:00am 14.0 11.1 4.6 53 4.4 ENE 9 17 5 9 1016.6 1015.5 0.0
30/06:30am 13.6 9.9 4.6 54 4.2 ESE 13 22 7 12 1016.2 1015.0 0.0
30/06:00am 13.8 9.8 4.9 55 4.2 ESE 15 24 8 13 1015.9 1014.7 0.0
30/05:30am 14.3 9.9 5.0 53 4.4 ESE 17 26 9 14 1015.7 1014.5 0.0
30/05:00am 14.7 10.0 5.3 53 4.5 ESE 19 28 10 15 1015.5 1014.3 0.0
30/04:30am 15.2 11.1 6.0 54 4.5 ESE 17 24 9 13 1015.4 1014.2 0.0
30/04:00am 15.6 12.0 6.7 55 4.4 ESE 15 22 8 12 1015.4 1014.2 0.0
30/03:30am 15.8 12.4 7.5 58 4.2 ESE 15 24 8 13 1015.6 1014.4 0.0
30/03:00am 16.1 12.9 8.3 60 4.0 SE 15 22 8 12 1015.5 1014.3 0.0
30/02:30am 16.1 13.2 9.7 66 3.4 SE 15 24 8 13 1015.4 1014.2 0.0
30/02:00am 16.2 13.1 10.2 67 3.2 SE 17 24 9 13 1015.3 1014.1 0.0
30/01:30am 16.2 13.2 10.8 70 2.9 SE 17 20 9 11 1015.2 1014.0 0.0
30/01:00am 16.1 13.6 11.1 72 2.7 SE 15 20 8 11 1015.4 1014.2 0.0
30/12:30am 16.7 13.8 11.0 69 3.1 SE 17 22 9 12 1015.5 1014.3 0.0
30/12:00am 16.9 13.9 10.8 67 3.3 SSE 17 24 9 13 1015.6 1014.4 0.0
 
Date/Time
CDT
Tmp

°C
App
Tmp
°C
Dew
Point
°C
Rel
Hum
%
Delta-T

°C
Wind Press
QNH
hPa
Press
MSL
hPa
Rain
since
9 am
mm
Dir
 
Spd
km/h
Gust
km/h
Spd
kts
Gust
kts
29/11:30pm 17.3 14.6 10.2 63 3.8 SSE 15 20 8 11 1015.8 1014.6 0.0
29/11:00pm 17.6 14.1 10.2 62 4.0 SSE 19 24 10 13 1016.0 1014.8 0.0
29/10:30pm 17.6 14.2 9.3 58 4.4 SSE 17 26 9 14 1016.1 1014.9 0.0
29/10:00pm 18.1 14.6 8.8 54 4.9 SSE 17 22 9 12 1016.1 1014.9 0.0
29/09:30pm 19.1 16.1 7.9 48 5.8 SSE 13 20 7 11 1016.0 1014.8 0.0
29/09:00pm 19.9 16.8 7.3 44 6.5 SE 13 20 7 11 1015.7 1014.5 0.0
29/08:30pm 21.1 17.3 7.5 41 7.1 SSE 17 26 9 14 1015.5 1014.3 0.0
29/08:00pm 22.9 18.6 6.8 35 8.4 SSE 19 28 10 15 1015.4 1014.2 0.0
29/07:30pm 24.5 20.0 6.0 30 9.6 SE 19 24 10 13 1015.0 1013.8 0.0
29/07:00pm 25.6 20.4 2.6 22 11.3 SE 19 30 10 16 1014.7 1013.5 0.0
29/06:30pm 26.6 20.5 -2.4 14 13.1 SE 20 35 11 19 1014.6 1013.4 0.0
29/06:00pm 26.8 20.9 -2.3 14 13.2 ESE 19 33 10 18 1014.8 1013.6 0.0
29/05:30pm 27.1 21.5 -3.0 13 13.5 ESE 17 26 9 14 1014.9 1013.7 0.0
29/05:00pm 27.2 21.0 -3.2 13 13.6 ESE 20 32 11 17 1015.0 1013.8 0.0
29/04:30pm 27.4 20.7 -4.1 12 13.9 SE 22 35 12 19 1015.2 1014.0 0.0
29/04:00pm 27.3 21.1 -4.4 12 13.9 ESE 19 33 10 18 1015.6 1014.4 0.0
29/03:30pm 26.4 19.8 -6.7 11 13.8 ESE 20 33 11 18 1015.9 1014.7 0.0
29/03:00pm 26.5 20.4 -4.2 13 13.4 ESE 19 30 10 16 1016.1 1014.9 0.0
29/02:30pm 25.5 19.6 -0.7 18 12.1 SE 20 32 11 17 1016.5 1015.4 0.0
29/02:00pm 24.8 19.2 1.3 21 11.2 ESE 20 33 11 18 1016.7 1015.6 0.0
29/01:30pm 24.6 20.3 3.0 24 10.6 E 15 28 8 15 1017.1 1016.0 0.0
29/01:00pm 23.0 18.2 2.7 26 9.8 ESE 17 32 9 17 1017.6 1016.5 0.0
29/12:30pm 23.0 18.1 4.0 29 9.4 ESE 19 30 10 16 1017.7 1016.6 0.0
29/12:00pm 22.5 18.1 5.0 32 8.8 SE 17 26 9 14 1018.1 1016.9 0.0
29/11:30am 21.6 17.3 5.3 34 8.2 ESE 17 26 9 14 1018.2 1017.0 0.0
29/11:00am 20.6 16.3 5.4 37 7.6 ESE 17 28 9 15 1018.3 1017.1 0.0
29/10:30am 20.1 15.3 5.7 39 7.2 ESE 20 30 11 16 1018.2 1017.0 0.0
29/10:00am 18.7 13.5 5.3 41 6.6 ESE 22 32 12 17 1018.3 1017.1 0.0
29/09:30am 18.7 14.9 5.6 42 6.5 ESE 15 24 8 13 1018.4 1017.2 0.0
29/09:00am 17.6 13.4 5.9 46 5.8 E 17 26 9 14 1018.4 1017.2 0.0
29/08:30am 16.5 12.3 5.6 48 5.3 ESE 17 30 9 16 1018.1 1016.9 0.0
29/08:00am 15.7 10.2 5.9 52 4.8 ESE 24 35 13 19 1017.7 1016.6 0.0
29/07:30am 14.8 9.6 5.7 54 4.4 ESE 22 39 12 21 1017.4 1016.3 0.0
29/07:00am 14.1 9.6 6.0 58 3.9 ESE 19 28 10 15 1017.2 1016.1 0.0
29/06:30am 14.2 9.7 5.9 57 4.0 ESE 19 30 10 16 1016.8 1015.7 0.0
29/06:00am 14.6 10.5 6.4 58 4.0 ESE 17 32 9 17 1016.7 1015.6 0.0
29/05:30am 14.9 10.5 6.6 57 4.1 ESE 19 28 10 15 1016.4 1015.2 0.0
29/05:00am 15.2 10.8 6.7 57 4.2 ESE 19 30 10 16 1016.1 1014.9 0.0
29/04:30am 15.5 11.2 6.9 56 4.3 ESE 19 28 10 15 1015.9 1014.7 0.0
29/04:00am 16.2 11.9 6.8 53 4.7 ESE 19 28 10 15 1015.9 1014.7 0.0
29/03:30am 16.3 12.5 7.6 56 4.4 ESE 17 28 9 15 1015.8 1014.6 0.0
29/03:00am 16.3 12.8 8.6 60 4.0 ESE 17 26 9 14 1015.6 1014.4 0.0
29/02:30am 16.3 13.4 9.5 64 3.6 ESE 15 22 8 12 1015.5 1014.3 0.0
29/02:00am 16.5 13.3 9.9 65 3.5 SE 17 24 9 13 1015.6 1014.4 0.0
29/01:30am 16.4 13.1 10.9 70 3.0 SE 19 28 10 15 1015.6 1014.4 0.0
29/01:00am 16.5 13.2 11.0 70 3.0 SE 19 28 10 15 1015.6 1014.4 0.0
29/12:30am 15.9 13.8 11.3 74 2.5 SE 13 15 7 8 1015.9 1014.7 0.0
29/12:00am 16.2 15.3 11.2 72 2.7 SSE 7 11 4 6 1016.2 1015.0 0.0
 
Date/Time
CDT
Tmp

°C
App
Tmp
°C
Dew
Point
°C
Rel
Hum
%
Delta-T

°C
Wind Press
QNH
hPa
Press
MSL
hPa
Rain
since
9 am
mm
Dir
 
Spd
km/h
Gust
km/h
Spd
kts
Gust
kts
28/11:30pm 16.6 14.0 10.7 68 3.2 SSE 15 22 8 12 1016.3 1015.1 0.0
28/11:00pm 16.5 14.1 10.1 66 3.4 SSE 13 19 7 10 1016.3 1015.1 0.0
28/10:30pm 16.6 14.0 9.4 62 3.8 S 13 20 7 11 1016.5 1015.4 0.0
28/10:00pm 16.9 14.3 9.3 61 4.0 SSW 13 17 7 9 1016.4 1015.2 0.0
28/09:30pm 17.5 14.8 8.9 57 4.5 S 13 17 7 9 1016.4 1015.2 0.0
28/09:00pm 18.4 16.0 8.5 52 5.2 S 11 17 6 9 1016.1 1014.9 0.0
28/08:30pm 19.4 16.4 7.9 47 6.0 SSE 13 17 7 9 1015.9 1014.7 0.0
28/08:00pm 21.0 18.3 7.4 41 7.1 SSE 11 17 6 9 1015.9 1014.7 0.0
28/07:30pm 21.5 17.3 7.6 40 7.3 SSE 19 28 10 15 1015.7 1014.5 0.0
28/07:00pm 22.3 18.0 6.9 37 8.0 SSE 19 26 10 14 1015.5 1014.3 0.0
28/06:30pm 23.3 18.1 5.4 31 9.1 SE 22 32 12 17 1015.2 1014.0 0.0
28/06:00pm 23.2 17.4 4.4 29 9.4 SE 24 35 13 19 1015.2 1014.0 0.0
28/05:30pm 23.7 18.8 4.9 29 9.5 SE 20 33 11 18 1015.1 1013.9 0.0
28/05:00pm 24.1 19.3 4.4 28 9.9 SE 19 30 10 16 1015.1 1013.9 0.0
28/04:30pm 24.4 18.7 3.0 25 10.5 SE 22 35 12 19 1015.2 1014.0 0.0

Latest Capital City Observations: Canberra | Sydney | Melbourne | Brisbane | Adelaide | Perth | Hobart | Darwin

Other Formats:

Comma delimited format used in spreadsheet applications
http://www.bom.gov.au/fwo/IDS60901/IDS60901.94681.axf

JavaScript Object Notation format (JSON) in row-major order
http://www.bom.gov.au/fwo/IDS60901/IDS60901.94681.json